CEB225 RPLL-RPMZ
Flight info
| Callsign | CEB225 |
|---|---|
| Flight time | N/A |
| Altitude | 37000 |
| Route | VERDE2V VERDE A461 TINDO TINDO1W |
| Aircraft | A319/M-SDE3FGHIRWY/LB1 |
Departure
| Time | 2026-05-04 09:54 |
|---|---|
| Airport | Ninoy Aquino International Airport (RPLL) |
Arrival
| Time | N/A |
|---|---|
| Airport | Zamboanga International Airport (RPMZ) |
| Time | Latitude | Longitude | Altitude | Speed | Heading |
|---|---|---|---|---|---|
| 2026-05-04 09:14 | 14.52335 | 121.00835 | 84 ft | 0 kts | 44° |
| 2026-05-04 09:44 | 14.52333 | 121.00833 | 84 ft | 2 kts | 45° |
| 2026-05-04 09:44 | 14.52323 | 121.00823 | 84 ft | 2 kts | 44° |
| 2026-05-04 09:46 | 14.52240 | 121.00782 | 84 ft | 2 kts | 332° |
| 2026-05-04 09:46 | 14.52230 | 121.00789 | 84 ft | 0 kts | 317° |
| 2026-05-04 09:46 | 14.52225 | 121.00794 | 84 ft | 0 kts | 314° |
| 2026-05-04 09:51 | 14.52442 | 121.00571 | 84 ft | 15 kts | 315° |
| 2026-05-04 09:51 | 14.52523 | 121.00487 | 84 ft | 13 kts | 310° |
| 2026-05-04 09:51 | 14.52545 | 121.00415 | 84 ft | 10 kts | 267° |
| 2026-05-04 09:51 | 14.52541 | 121.00339 | 84 ft | 5 kts | 266° |
| 2026-05-04 09:52 | 14.52541 | 121.00337 | 84 ft | 0 kts | 266° |
| 2026-05-04 09:52 | 14.52540 | 121.00330 | 84 ft | 3 kts | 265° |
| 2026-05-04 09:53 | 14.52537 | 121.00282 | 84 ft | 9 kts | 266° |
| 2026-05-04 09:53 | 14.52487 | 121.00277 | 84 ft | 12 kts | 135° |
| 2026-05-04 09:53 | 14.52413 | 121.00354 | 84 ft | 16 kts | 135° |
| 2026-05-04 09:53 | 14.52319 | 121.00451 | 84 ft | 27 kts | 134° |
| 2026-05-04 09:54 | 14.51994 | 121.00787 | 84 ft | 104 kts | 135° |
| 2026-05-04 09:54 | 14.51328 | 121.01473 | 160 ft | 159 kts | 135° |
| 2026-05-04 09:54 | 14.50535 | 121.02290 | 891 ft | 160 kts | 135° |
| 2026-05-04 09:54 | 14.49780 | 121.03078 | 1765 ft | 156 kts | 134° |
| 2026-05-04 09:55 | 14.49015 | 121.03880 | 2411 ft | 166 kts | 134° |
| 2026-05-04 09:55 | 14.48175 | 121.04760 | 2887 ft | 182 kts | 134° |
| 2026-05-04 09:55 | 14.47226 | 121.05748 | 3306 ft | 204 kts | 136° |
| 2026-05-04 09:55 | 14.45981 | 121.06529 | 3843 ft | 221 kts | 169° |
| 2026-05-04 09:56 | 14.44395 | 121.06581 | 4434 ft | 239 kts | 184° |
| 2026-05-04 09:56 | 14.42690 | 121.06413 | 5039 ft | 257 kts | 186° |
| 2026-05-04 09:56 | 14.40872 | 121.06239 | 5736 ft | 272 kts | 185° |
| 2026-05-04 09:56 | 14.38973 | 121.06099 | 6688 ft | 276 kts | 184° |
| 2026-05-04 09:57 | 14.37069 | 121.05989 | 7633 ft | 279 kts | 183° |
| 2026-05-04 09:57 | 14.35136 | 121.05898 | 8541 ft | 283 kts | 182° |
| 2026-05-04 09:57 | 14.33194 | 121.05820 | 9426 ft | 286 kts | 182° |
| 2026-05-04 09:57 | 14.31190 | 121.05746 | 10312 ft | 290 kts | 182° |
| 2026-05-04 09:58 | 14.29857 | 121.05699 | 10796 ft | 296 kts | 182° |
| 2026-05-04 09:58 | 14.27005 | 121.05603 | 11619 ft | 314 kts | 182° |
| 2026-05-04 09:58 | 14.24836 | 121.05534 | 12467 ft | 318 kts | 182° |
| 2026-05-04 10:00 | 14.08977 | 121.05029 | 17683 ft | 343 kts | 182° |
| 2026-05-04 10:00 | 14.06588 | 121.04952 | 18346 ft | 346 kts | 182° |
| 2026-05-04 10:02 | 13.89224 | 121.04400 | 22521 ft | 369 kts | 182° |
| 2026-05-04 10:04 | 13.70761 | 121.03813 | 25959 ft | 390 kts | 182° |
| 2026-05-04 10:04 | 13.68967 | 121.03756 | 26250 ft | 392 kts | 182° |
| 2026-05-04 10:04 | 13.67143 | 121.03698 | 26541 ft | 393 kts | 182° |
| 2026-05-04 10:04 | 13.63497 | 121.03582 | 27101 ft | 397 kts | 182° |
| 2026-05-04 10:05 | 13.60751 | 121.03494 | 27507 ft | 399 kts | 182° |
| 2026-05-04 10:05 | 13.57958 | 121.03406 | 27909 ft | 402 kts | 182° |
| 2026-05-04 10:05 | 13.55155 | 121.03316 | 28296 ft | 404 kts | 182° |
| 2026-05-04 10:05 | 13.52363 | 121.03227 | 28667 ft | 407 kts | 182° |
| 2026-05-04 10:06 | 13.49520 | 121.03175 | 29031 ft | 409 kts | 180° |
| 2026-05-04 10:06 | 13.46702 | 121.03200 | 29386 ft | 412 kts | 179° |
| 2026-05-04 10:06 | 13.43827 | 121.03235 | 29734 ft | 414 kts | 179° |
| 2026-05-04 10:08 | 13.26347 | 121.03416 | 31629 ft | 427 kts | 179° |
| 2026-05-04 10:08 | 13.23377 | 121.03446 | 31925 ft | 428 kts | 179° |
| 2026-05-04 10:08 | 13.20397 | 121.03479 | 32297 ft | 428 kts | 179° |
| 2026-05-04 10:08 | 13.17443 | 121.03512 | 32695 ft | 426 kts | 179° |
| 2026-05-04 10:09 | 13.14475 | 121.03543 | 33073 ft | 425 kts | 179° |
| 2026-05-04 10:09 | 13.11550 | 121.03574 | 33423 ft | 425 kts | 179° |
| 2026-05-04 10:09 | 13.08581 | 121.03603 | 33763 ft | 424 kts | 179° |
| 2026-05-04 10:09 | 13.05665 | 121.03633 | 34089 ft | 424 kts | 179° |
| 2026-05-04 10:10 | 13.02701 | 121.03663 | 34412 ft | 423 kts | 179° |
| 2026-05-04 10:10 | 12.99780 | 121.03692 | 34721 ft | 422 kts | 179° |
| 2026-05-04 10:10 | 12.96851 | 121.03722 | 35021 ft | 422 kts | 179° |
| 2026-05-04 10:10 | 12.93962 | 121.03751 | 35297 ft | 422 kts | 179° |
| 2026-05-04 10:11 | 12.91020 | 121.03780 | 35534 ft | 422 kts | 179° |
| 2026-05-04 10:11 | 12.88114 | 121.03809 | 35745 ft | 423 kts | 179° |
| 2026-05-04 10:11 | 12.85137 | 121.03838 | 35955 ft | 424 kts | 179° |
| 2026-05-04 10:11 | 12.82201 | 121.03867 | 36160 ft | 425 kts | 179° |
| 2026-05-04 10:12 | 12.79276 | 121.03896 | 36355 ft | 426 kts | 179° |
| 2026-05-04 10:12 | 12.76296 | 121.03925 | 36542 ft | 427 kts | 179° |
| 2026-05-04 10:12 | 12.73317 | 121.03955 | 36720 ft | 428 kts | 179° |
| 2026-05-04 10:12 | 12.70346 | 121.03984 | 36892 ft | 429 kts | 179° |
| 2026-05-04 10:13 | 12.64405 | 121.04043 | 36964 ft | 431 kts | 179° |
| 2026-05-04 10:13 | 12.58411 | 121.04102 | 36967 ft | 431 kts | 179° |
| 2026-05-04 10:14 | 12.52420 | 121.04159 | 36967 ft | 431 kts | 179° |
| 2026-05-04 10:16 | 12.28600 | 121.05718 | 36967 ft | 431 kts | 169° |
| 2026-05-04 10:16 | 12.22730 | 121.06843 | 36967 ft | 431 kts | 169° |
| 2026-05-04 10:17 | 12.16815 | 121.07969 | 36967 ft | 431 kts | 169° |
| 2026-05-04 10:19 | 11.93307 | 121.12415 | 36967 ft | 431 kts | 169° |
| 2026-05-04 10:19 | 11.87415 | 121.13526 | 36967 ft | 431 kts | 169° |
| 2026-05-04 10:20 | 11.81548 | 121.14628 | 36967 ft | 431 kts | 169° |
| 2026-05-04 10:20 | 11.75654 | 121.15736 | 36967 ft | 431 kts | 169° |
| 2026-05-04 10:21 | 11.69758 | 121.16847 | 36967 ft | 431 kts | 169° |
| 2026-05-04 10:21 | 11.63908 | 121.17949 | 36967 ft | 431 kts | 169° |
| 2026-05-04 10:22 | 11.55093 | 121.19609 | 36967 ft | 431 kts | 169° |
| 2026-05-04 10:23 | 11.49203 | 121.20718 | 36967 ft | 431 kts | 169° |
| 2026-05-04 10:25 | 11.25691 | 121.25137 | 36967 ft | 431 kts | 169° |
| 2026-05-04 10:25 | 11.19841 | 121.26235 | 36967 ft | 431 kts | 169° |
| 2026-05-04 10:26 | 11.13937 | 121.27342 | 36967 ft | 431 kts | 169° |
| 2026-05-04 10:26 | 11.08078 | 121.28440 | 36967 ft | 431 kts | 169° |
| 2026-05-04 10:27 | 11.02215 | 121.29539 | 36967 ft | 430 kts | 169° |
| 2026-05-04 10:27 | 10.96320 | 121.30656 | 36967 ft | 430 kts | 169° |
| 2026-05-04 10:28 | 10.90480 | 121.31782 | 36967 ft | 430 kts | 169° |
| 2026-05-04 10:28 | 10.84591 | 121.32909 | 36967 ft | 430 kts | 169° |
| 2026-05-04 10:29 | 10.78710 | 121.34032 | 36967 ft | 430 kts | 169° |
| 2026-05-04 10:29 | 10.72834 | 121.35156 | 36967 ft | 430 kts | 169° |
| 2026-05-04 10:30 | 10.66983 | 121.36275 | 36967 ft | 430 kts | 169° |
| 2026-05-04 10:30 | 10.61092 | 121.37400 | 36967 ft | 430 kts | 169° |
| 2026-05-04 10:31 | 10.55263 | 121.38514 | 36967 ft | 430 kts | 169° |
| 2026-05-04 10:32 | 10.34682 | 121.42371 | 36967 ft | 430 kts | 169° |
| 2026-05-04 10:33 | 10.28830 | 121.43461 | 36967 ft | 430 kts | 169° |
| 2026-05-04 10:33 | 10.22936 | 121.44558 | 36967 ft | 430 kts | 169° |
| 2026-05-04 10:34 | 10.17055 | 121.45652 | 36967 ft | 430 kts | 169° |
| 2026-05-04 10:34 | 10.11193 | 121.46742 | 36967 ft | 430 kts | 169° |
| 2026-05-04 10:35 | 10.05321 | 121.47834 | 36967 ft | 430 kts | 169° |
| 2026-05-04 10:35 | 9.99440 | 121.48927 | 36967 ft | 430 kts | 169° |
| 2026-05-04 10:36 | 9.93547 | 121.50020 | 36967 ft | 430 kts | 169° |
| 2026-05-04 10:36 | 9.87672 | 121.51109 | 36967 ft | 430 kts | 169° |
| 2026-05-04 10:37 | 9.81828 | 121.52191 | 36967 ft | 430 kts | 169° |
| 2026-05-04 10:37 | 9.75938 | 121.53286 | 36967 ft | 430 kts | 169° |
| 2026-05-04 10:39 | 9.55389 | 121.57101 | 36967 ft | 430 kts | 169° |